Time;durP1;ratioP1;P1;durP2;ratioP2;P2;SDS_P1;SDS_P2;PMS_P1;PMS_P2;Temp;Humidity;BMP_temperature;BMP_pressure;BME280_temperature;BME280_humidity;BME280_pressure;Samples;Min_cycle;Max_cycle;Signal;HPM_P1;HPM_P2
2023/06/26 00:00:32;;;;;;;7.63;6.00;;;16.00;99.90;;;;;;5030655;28;20060;-30
2023/06/26 00:02:58;;;;;;;8.57;5.78;;;16.10;99.90;;;;;;5025610;28;20041;-31
2023/06/26 00:05:24;;;;;;;8.52;6.07;;;16.10;99.90;;;;;;5032977;28;20072;-31
2023/06/26 00:07:50;;;;;;;8.68;5.78;;;16.20;99.90;;;;;;5027456;28;20445;-31
2023/06/26 00:10:15;;;;;;;7.07;5.32;;;16.30;99.90;;;;;;5025117;28;20057;-32
2023/06/26 00:12:41;;;;;;;9.02;5.80;;;16.30;99.90;;;;;;5021088;28;21784;-30
2023/06/26 00:15:07;;;;;;;8.00;5.65;;;16.20;99.90;;;;;;5028985;28;20036;-31
2023/06/26 00:17:36;;;;;;;9.95;5.80;;;16.20;99.90;;;;;;5025700;28;20026;-30
2023/06/26 00:20:03;;;;;;;9.57;6.10;;;16.10;99.90;;;;;;5027267;28;20030;-32
2023/06/26 00:22:28;;;;;;;7.03;5.63;;;16.00;99.90;;;;;;5026549;28;20060;-34
2023/06/26 00:24:54;;;;;;;9.38;6.13;;;15.80;99.90;;;;;;5008923;28;20033;-31
2023/06/26 00:27:20;;;;;;;9.23;5.50;;;15.80;99.90;;;;;;5025289;28;20033;-34
2023/06/26 00:29:46;;;;;;;8.82;5.95;;;15.70;99.90;;;;;;5026391;28;20056;-32
2023/06/26 00:32:11;;;;;;;9.25;5.88;;;15.60;99.90;;;;;;5028392;28;20648;-33
2023/06/26 00:34:37;;;;;;;11.85;6.10;;;15.60;99.90;;;;;;5029378;28;20025;-31
2023/06/26 00:37:03;;;;;;;8.13;5.93;;;15.70;99.90;;;;;;5027320;28;20439;-34
2023/06/26 00:39:29;;;;;;;8.00;6.15;;;15.60;99.90;;;;;;5027686;28;20049;-32
2023/06/26 00:41:55;;;;;;;7.32;5.85;;;15.70;99.90;;;;;;5023783;28;20029;-30
2023/06/26 00:44:21;;;;;;;7.20;5.28;;;15.70;99.90;;;;;;5028126;28;20065;-31
2023/06/26 00:46:47;;;;;;;8.95;5.70;;;15.60;99.90;;;;;;5027305;28;20025;-32
2023/06/26 00:49:12;;;;;;;8.48;6.20;;;15.50;99.90;;;;;;5028624;28;20732;-30
2023/06/26 00:51:38;;;;;;;9.30;5.75;;;15.60;99.90;;;;;;5024695;28;20033;-31
2023/06/26 00:54:04;;;;;;;9.38;5.88;;;15.60;99.90;;;;;;5022607;28;20033;-34
2023/06/26 00:56:31;;;;;;;7.00;5.55;;;15.60;99.90;;;;;;5026758;28;20032;-33
2023/06/26 00:58:57;;;;;;;11.48;6.05;;;15.70;99.90;;;;;;5022016;28;20079;-31
2023/06/26 01:01:25;;;;;;;9.30;6.05;;;15.60;99.90;;;;;;5002503;28;20025;-33
2023/06/26 01:03:52;;;;;;;10.68;5.78;;;15.40;99.90;;;;;;5022630;28;20056;-31
2023/06/26 01:06:23;;;;;;;7.35;5.35;;;15.40;99.90;;;;;;5025259;28;20041;-30
2023/06/26 01:08:49;;;;;;;8.55;5.80;;;15.40;99.90;;;;;;5020891;28;20034;-30
2023/06/26 01:11:15;;;;;;;9.32;5.85;;;15.40;99.90;;;;;;5026623;28;20029;-31
2023/06/26 01:13:43;;;;;;;9.38;5.80;;;15.40;99.90;;;;;;5025002;28;20520;-33
2023/06/26 01:16:10;;;;;;;7.88;5.53;;;15.30;99.90;;;;;;5023544;28;20487;-30
2023/06/26 01:18:42;;;;;;;8.82;5.90;;;15.20;99.90;;;;;;5024620;28;20029;-33
2023/06/26 01:21:09;;;;;;;8.13;5.40;;;15.20;99.90;;;;;;5022508;28;20030;-32
2023/06/26 01:23:41;;;;;;;9.68;6.25;;;15.30;99.90;;;;;;5026106;28;20091;-31
2023/06/26 01:26:35;;;;;;;9.48;5.75;;;15.30;99.90;;;;;;5020912;28;20047;-30
2023/06/26 01:29:03;;;;;;;10.48;6.00;;;15.30;99.90;;;;;;5021430;28;20165;-30
2023/06/26 01:31:30;;;;;;;8.00;5.70;;;15.20;99.90;;;;;;5024659;28;20045;-31
2023/06/26 01:34:00;;;;;;;8.18;5.60;;;15.20;99.90;;;;;;5022659;28;20029;-31
2023/06/26 01:36:27;;;;;;;8.15;5.75;;;15.10;99.90;;;;;;5022034;28;20029;-30
2023/06/26 01:38:52;;;;;;;8.63;6.00;;;15.00;99.90;;;;;;5025811;28;20513;-31
2023/06/26 01:41:19;;;;;;;9.27;6.18;;;15.00;99.90;;;;;;5023470;28;20021;-31
2023/06/26 01:44:06;;;;;;;8.40;5.60;;;15.00;99.90;;;;;;5020734;28;20053;-32
2023/06/26 01:46:55;;;;;;;8.98;5.63;;;15.10;99.90;;;;;;5019738;28;20128;-30
2023/06/26 01:49:42;;;;;;;7.28;5.68;;;14.80;99.90;;;;;;5024266;28;20038;-31
2023/06/26 01:52:28;;;;;;;7.40;5.50;;;14.60;99.90;;;;;;5022646;28;20053;-30
2023/06/26 01:55:02;;;;;;;7.32;5.38;;;14.80;99.90;;;;;;5021374;28;20370;-34
2023/06/26 01:57:31;;;;;;;8.93;5.65;;;14.80;99.90;;;;;;5022402;28;20025;-34
2023/06/26 01:59:58;;;;;;;8.27;5.75;;;14.70;99.90;;;;;;5023461;28;20056;-31
2023/06/26 02:02:24;;;;;;;8.17;5.60;;;14.80;99.90;;;;;;5024822;28;20113;-31
2023/06/26 02:04:51;;;;;;;7.10;5.00;;;14.80;99.90;;;;;;5029335;28;20277;-41
2023/06/26 02:07:16;;;;;;;7.18;5.18;;;14.80;99.90;;;;;;5023955;28;20045;-41
2023/06/26 02:09:42;;;;;;;8.00;5.53;;;14.80;99.90;;;;;;5019954;28;20091;-40
2023/06/26 02:12:08;;;;;;;7.82;5.55;;;14.80;99.90;;;;;;5017676;28;20034;-40
2023/06/26 02:14:34;;;;;;;8.93;5.32;;;14.80;99.90;;;;;;5023362;28;20032;-41
2023/06/26 02:17:00;;;;;;;9.30;6.85;;;14.70;99.90;;;;;;5018020;28;20026;-38
2023/06/26 02:19:27;;;;;;;10.00;5.68;;;14.60;99.90;;;;;;5024846;28;20029;-41
2023/06/26 02:21:53;;;;;;;8.60;5.82;;;14.70;99.90;;;;;;5024756;28;20037;-39
2023/06/26 02:24:19;;;;;;;9.57;5.80;;;14.70;99.90;;;;;;5022103;28;20049;-40
2023/06/26 02:26:45;;;;;;;9.90;6.25;;;14.70;99.90;;;;;;5022551;28;20057;-40
2023/06/26 02:29:11;;;;;;;7.55;5.60;;;14.70;99.90;;;;;;5023153;28;20029;-40
2023/06/26 02:31:37;;;;;;;8.98;5.85;;;14.50;99.90;;;;;;5019443;28;20045;-41
2023/06/26 02:34:03;;;;;;;10.30;6.05;;;14.40;99.90;;;;;;5023403;28;20116;-41
2023/06/26 02:36:29;;;;;;;8.70;5.80;;;14.50;99.90;;;;;;5022962;28;20026;-37
2023/06/26 02:38:55;;;;;;;9.18;6.30;;;14.40;99.90;;;;;;5023625;28;20529;-41
2023/06/26 02:41:20;;;;;;;8.65;5.93;;;14.50;99.90;;;;;;5018314;28;20060;-38
2023/06/26 02:43:46;;;;;;;9.13;6.10;;;14.40;99.90;;;;;;5022095;28;20053;-38
2023/06/26 02:46:11;;;;;;;10.07;6.78;;;14.40;99.90;;;;;;5018605;28;20036;-41
2023/06/26 02:48:37;;;;;;;9.02;6.10;;;14.40;99.90;;;;;;5024717;28;20124;-41
2023/06/26 02:51:02;;;;;;;9.32;5.82;;;14.40;99.90;;;;;;5024042;28;20065;-40
2023/06/26 02:53:28;;;;;;;9.85;6.40;;;14.40;99.90;;;;;;5026948;28;20018;-39
2023/06/26 02:55:53;;;;;;;9.40;6.30;;;14.40;99.90;;;;;;5024058;28;20486;-37
2023/06/26 02:58:19;;;;;;;9.73;6.32;;;14.20;99.90;;;;;;5021374;28;20402;-40
2023/06/26 03:00:45;;;;;;;8.57;5.80;;;14.30;99.90;;;;;;5022908;28;20034;-41
2023/06/26 03:03:10;;;;;;;9.75;6.20;;;14.30;99.90;;;;;;5018669;28;20660;-38
2023/06/26 03:05:36;;;;;;;8.77;5.70;;;14.30;99.90;;;;;;5023482;28;20049;-40
2023/06/26 03:08:02;;;;;;;9.55;6.18;;;14.30;99.90;;;;;;5022763;28;20104;-41
2023/06/26 03:10:28;;;;;;;8.80;5.75;;;14.30;99.90;;;;;;5020130;28;20030;-40
2023/06/26 03:12:54;;;;;;;9.05;5.90;;;14.30;99.90;;;;;;5021741;28;20036;-41
2023/06/26 03:15:20;;;;;;;8.93;5.60;;;14.30;99.90;;;;;;5022606;28;20091;-33
2023/06/26 03:17:45;;;;;;;9.70;6.53;;;14.30;99.90;;;;;;5020651;28;20049;-33
2023/06/26 03:20:11;;;;;;;9.25;6.13;;;14.30;99.90;;;;;;5017050;28;20030;-33
2023/06/26 03:22:36;;;;;;;9.82;6.43;;;14.20;99.90;;;;;;5020160;28;20767;-33
2023/06/26 03:25:03;;;;;;;9.27;6.00;;;14.30;99.90;;;;;;5023042;28;20503;-33
2023/06/26 03:27:28;;;;;;;7.40;5.65;;;14.20;99.90;;;;;;5024419;28;20780;-35
2023/06/26 03:29:54;;;;;;;8.85;5.50;;;14.10;99.90;;;;;;5031015;28;20033;-35
2023/06/26 03:32:19;;;;;;;10.90;6.45;;;14.00;99.90;;;;;;5022553;28;20038;-33
2023/06/26 03:34:46;;;;;;;9.57;5.85;;;14.00;99.90;;;;;;5022008;28;20028;-36
2023/06/26 03:37:11;;;;;;;11.23;5.95;;;13.90;99.90;;;;;;5023506;28;20084;-33
2023/06/26 03:39:37;;;;;;;8.60;5.70;;;13.80;99.90;;;;;;5021412;28;20034;-37
2023/06/26 03:42:02;;;;;;;9.65;6.55;;;13.80;99.90;;;;;;5024161;28;20029;-34
2023/06/26 03:44:28;;;;;;;10.27;5.82;;;13.80;99.90;;;;;;5019858;28;20069;-33
2023/06/26 03:46:54;;;;;;;9.43;6.43;;;13.90;99.90;;;;;;5020675;28;20045;-36
2023/06/26 03:49:19;;;;;;;9.15;5.75;;;13.80;99.90;;;;;;5019691;28;20033;-33
2023/06/26 03:51:45;;;;;;;7.88;5.93;;;13.70;99.90;;;;;;5022444;28;20240;-34
2023/06/26 03:54:11;;;;;;;8.27;5.72;;;13.80;99.90;;;;;;5020242;28;20036;-36
2023/06/26 03:56:37;;;;;;;9.98;6.13;;;13.70;99.90;;;;;;5023642;28;20025;-32
2023/06/26 03:59:02;;;;;;;8.20;5.63;;;13.70;99.90;;;;;;5019240;28;20036;-34
2023/06/26 04:01:28;;;;;;;10.73;6.28;;;13.70;99.90;;;;;;5022396;28;20040;-33
2023/06/26 04:03:54;;;;;;;10.50;6.07;;;13.80;99.90;;;;;;5021786;28;20373;-32
2023/06/26 04:06:20;;;;;;;8.20;6.15;;;13.90;99.90;;;;;;5024164;28;20135;-36
2023/06/26 04:08:45;;;;;;;10.23;6.28;;;14.00;99.90;;;;;;5023747;28;20042;-34
2023/06/26 04:11:11;;;;;;;9.05;5.65;;;13.90;99.90;;;;;;5019464;28;20186;-34
2023/06/26 04:13:37;;;;;;;8.50;5.25;;;13.90;99.90;;;;;;5020500;28;20029;-33
2023/06/26 04:16:02;;;;;;;9.27;5.63;;;13.90;99.90;;;;;;5019751;28;20041;-36
2023/06/26 04:18:28;;;;;;;8.90;5.63;;;14.10;99.90;;;;;;5016784;28;20029;-35
2023/06/26 04:21:11;;;;;;;9.82;6.07;;;14.10;99.90;;;;;;5021492;28;20029;-34
2023/06/26 04:23:38;;;;;;;9.25;5.68;;;14.30;99.90;;;;;;5014467;28;20383;-33
2023/06/26 04:26:05;;;;;;;8.52;6.05;;;14.40;99.90;;;;;;5010515;28;20075;-40
2023/06/26 04:28:34;;;;;;;10.32;6.00;;;14.40;99.90;;;;;;5015853;28;20115;-37
2023/06/26 04:31:01;;;;;;;9.57;6.18;;;14.50;99.90;;;;;;4999886;28;20080;-38
2023/06/26 04:33:27;;;;;;;8.88;6.05;;;14.50;99.90;;;;;;5017658;28;20033;-38
2023/06/26 04:35:53;;;;;;;9.05;5.82;;;14.60;99.90;;;;;;5018050;28;20506;-40
2023/06/26 04:38:19;;;;;;;9.73;6.20;;;14.70;99.90;;;;;;5018875;28;20052;-38
2023/06/26 04:40:45;;;;;;;7.85;5.70;;;14.80;99.90;;;;;;5016964;28;20498;-38
2023/06/26 04:43:11;;;;;;;10.23;6.10;;;14.80;99.90;;;;;;4995253;28;20050;-41
2023/06/26 04:45:37;;;;;;;11.25;6.57;;;14.90;99.90;;;;;;5017733;28;20044;-38
2023/06/26 04:48:03;;;;;;;9.20;6.07;;;15.00;99.90;;;;;;5017741;28;20021;-38
2023/06/26 04:50:29;;;;;;;10.32;6.25;;;15.10;99.90;;;;;;4993666;28;20148;-39
2023/06/26 04:52:56;;;;;;;11.52;7.13;;;15.20;99.90;;;;;;5015191;28;20128;-40
2023/06/26 04:55:26;;;;;;;9.07;6.07;;;15.30;99.90;;;;;;5014034;28;20036;-41
2023/06/26 04:57:52;;;;;;;10.20;6.65;;;15.40;99.90;;;;;;5021843;28;20032;-41
2023/06/26 05:00:18;;;;;;;9.30;6.00;;;15.60;99.90;;;;;;5023048;28;20869;-41
2023/06/26 05:02:44;;;;;;;10.82;6.30;;;15.80;99.90;;;;;;5025240;28;20565;-41
2023/06/26 05:05:10;;;;;;;10.23;5.65;;;15.90;99.90;;;;;;5022760;28;20033;-39
2023/06/26 05:07:36;;;;;;;11.23;6.50;;;16.00;99.90;;;;;;5022720;28;20038;-39
2023/06/26 05:10:02;;;;;;;12.18;6.75;;;16.10;99.90;;;;;;5005062;28;20472;-41
2023/06/26 05:12:28;;;;;;;9.45;6.60;;;16.10;99.90;;;;;;5021317;28;20493;-40
2023/06/26 05:14:53;;;;;;;11.18;6.60;;;16.20;99.90;;;;;;5021336;28;20068;-41
2023/06/26 05:17:19;;;;;;;10.98;6.70;;;16.30;99.90;;;;;;5019842;28;20029;-40
2023/06/26 05:19:44;;;;;;;10.55;6.70;;;16.40;99.90;;;;;;5019972;28;20034;-40
2023/06/26 05:22:12;;;;;;;12.68;7.15;;;16.50;99.90;;;;;;5020718;28;20100;-40
2023/06/26 05:24:38;;;;;;;11.00;6.70;;;16.60;99.90;;;;;;5020066;28;20033;-42
2023/06/26 05:27:05;;;;;;;11.88;7.10;;;16.70;99.90;;;;;;5021401;28;20292;-40
2023/06/26 05:29:31;;;;;;;10.35;6.53;;;16.80;99.90;;;;;;5019703;28;20030;-39
2023/06/26 05:31:57;;;;;;;10.73;6.90;;;17.10;99.90;;;;;;5019280;28;20041;-38
2023/06/26 05:34:24;;;;;;;11.80;6.78;;;17.20;99.90;;;;;;5017749;28;20040;-34
2023/06/26 05:36:57;;;;;;;12.55;7.90;;;17.30;99.90;;;;;;5021075;28;20025;-39
2023/06/26 05:39:24;;;;;;;11.27;7.07;;;17.40;99.90;;;;;;5020491;28;20033;-41
2023/06/26 05:41:50;;;;;;;11.70;6.90;;;17.60;99.90;;;;;;5019652;28;20120;-42
2023/06/26 05:44:16;;;;;;;12.65;6.30;;;17.80;99.90;;;;;;5022556;28;20057;-41
2023/06/26 05:46:41;;;;;;;13.23;7.30;;;17.90;99.90;;;;;;5018378;28;20056;-41
2023/06/26 05:49:07;;;;;;;10.75;6.35;;;18.10;99.90;;;;;;5018648;28;20033;-37
2023/06/26 05:51:33;;;;;;;10.60;6.90;;;18.20;99.90;;;;;;5016407;28;20033;-41
2023/06/26 05:53:59;;;;;;;9.57;6.07;;;18.40;99.90;;;;;;5017288;28;20113;-42
2023/06/26 05:56:25;;;;;;;11.88;6.75;;;18.60;99.90;;;;;;5013174;28;20454;-36
2023/06/26 05:58:52;;;;;;;11.10;6.20;;;18.80;99.90;;;;;;5021308;28;20111;-42
2023/06/26 06:01:18;;;;;;;10.50;6.72;;;18.80;99.90;;;;;;5019779;28;20061;-41
2023/06/26 06:03:44;;;;;;;10.63;6.28;;;19.00;99.90;;;;;;5023430;28;20033;-42
2023/06/26 06:06:10;;;;;;;10.63;6.20;;;19.20;99.90;;;;;;5020592;28;20861;-39
2023/06/26 06:08:36;;;;;;;10.00;6.72;;;19.40;99.90;;;;;;5019709;28;20041;-38
2023/06/26 06:11:02;;;;;;;7.63;6.07;;;19.50;99.90;;;;;;5021937;28;20083;-38
2023/06/26 06:13:28;;;;;;;8.75;5.97;;;19.80;99.90;;;;;;5021407;28;20105;-42
2023/06/26 06:15:54;;;;;;;9.57;6.22;;;20.00;99.90;;;;;;5020698;28;20494;-41
2023/06/26 06:18:20;;;;;;;9.18;5.95;;;20.20;99.90;;;;;;5020520;28;20029;-41
2023/06/26 06:20:46;;;;;;;8.68;5.57;;;20.30;99.90;;;;;;5022124;28;20095;-39
2023/06/26 06:23:11;;;;;;;7.90;5.30;;;20.50;99.90;;;;;;5014954;28;20571;-42
2023/06/26 06:25:37;;;;;;;9.60;5.80;;;20.70;99.90;;;;;;4998998;28;20018;-41
2023/06/26 06:28:04;;;;;;;8.52;5.80;;;20.80;99.90;;;;;;4994680;28;20033;-38
2023/06/26 06:30:30;;;;;;;7.93;4.95;;;20.90;99.90;;;;;;5018769;28;20057;-40
2023/06/26 06:32:55;;;;;;;8.50;6.18;;;21.10;99.90;;;;;;5020528;28;20068;-40
2023/06/26 06:35:21;;;;;;;7.80;5.63;;;21.30;99.90;;;;;;5019898;28;20493;-41
2023/06/26 06:37:47;;;;;;;9.45;5.93;;;21.30;99.90;;;;;;5018885;28;20108;-40
2023/06/26 06:40:12;;;;;;;8.38;5.93;;;21.40;99.90;;;;;;5024573;28;20029;-40
2023/06/26 06:42:38;;;;;;;10.18;6.05;;;21.60;99.90;;;;;;5023730;28;20046;-39
2023/06/26 06:45:05;;;;;;;9.88;6.03;;;21.80;99.90;;;;;;5018449;28;20387;-34
2023/06/26 06:47:32;;;;;;;7.68;5.75;;;21.80;99.90;;;;;;5023188;28;20026;-33
2023/06/26 06:49:58;;;;;;;8.13;6.15;;;21.80;99.90;;;;;;5023862;28;20167;-33
2023/06/26 06:52:24;;;;;;;9.70;6.60;;;22.00;99.90;;;;;;5022296;28;20118;-34
2023/06/26 06:54:53;;;;;;;7.25;5.50;;;22.20;99.90;;;;;;5023028;28;20054;-33
2023/06/26 06:57:22;;;;;;;7.47;5.75;;;22.40;99.90;;;;;;5023053;28;20111;-35
2023/06/26 06:59:48;;;;;;;6.80;5.60;;;22.50;99.90;;;;;;5021357;28;21034;-35
2023/06/26 07:02:16;;;;;;;7.35;5.63;;;22.70;99.90;;;;;;5024301;28;20040;-33
2023/06/26 07:04:41;;;;;;;9.82;6.28;;;22.80;99.90;;;;;;5021708;28;20064;-33
2023/06/26 07:07:07;;;;;;;8.40;6.30;;;23.00;99.90;;;;;;5019806;28;20092;-32
2023/06/26 07:09:32;;;;;;;6.07;5.18;;;23.10;99.90;;;;;;5023981;28;20045;-35
2023/06/26 07:11:58;;;;;;;9.63;5.40;;;23.20;99.90;;;;;;5022585;28;20021;-33
2023/06/26 07:14:24;;;;;;;7.82;5.70;;;23.40;99.90;;;;;;5025314;28;20546;-33
2023/06/26 07:16:49;;;;;;;8.35;6.03;;;23.60;99.90;;;;;;5022141;28;20026;-33
2023/06/26 07:19:15;;;;;;;7.10;5.38;;;23.70;99.90;;;;;;5018899;28;20072;-33
2023/06/26 07:21:41;;;;;;;7.22;5.68;;;23.90;99.90;;;;;;5022959;28;20482;-34
2023/06/26 07:24:07;;;;;;;6.28;5.55;;;24.00;99.90;;;;;;5021853;28;20542;-33
2023/06/26 07:26:33;;;;;;;8.15;5.60;;;24.10;99.90;;;;;;5023238;28;20094;-35
2023/06/26 07:28:58;;;;;;;7.20;5.50;;;24.30;99.90;;;;;;5022914;28;20034;-33
2023/06/26 07:31:24;;;;;;;7.63;5.70;;;24.40;99.90;;;;;;5023712;28;20513;-34
2023/06/26 07:33:49;;;;;;;9.10;5.93;;;24.60;99.90;;;;;;5022067;28;20853;-33
2023/06/26 07:36:15;;;;;;;7.78;5.22;;;24.70;99.90;;;;;;5017012;28;20071;-32
2023/06/26 07:38:40;;;;;;;7.60;5.47;;;24.80;99.90;;;;;;5023163;28;20025;-32
2023/06/26 07:41:06;;;;;;;8.65;5.93;;;24.90;99.90;;;;;;5021560;28;20064;-33
2023/06/26 07:43:31;;;;;;;6.80;5.18;;;24.90;99.90;;;;;;5022893;28;20120;-36
2023/06/26 07:46:00;;;;;;;8.13;5.30;;;25.00;99.90;;;;;;5024664;28;20029;-33
2023/06/26 07:48:25;;;;;;;8.70;5.60;;;25.10;99.90;;;;;;5025448;28;20864;-34
2023/06/26 07:50:51;;;;;;;8.25;5.60;;;25.50;99.90;;;;;;5024545;28;20041;-33
2023/06/26 07:53:17;;;;;;;7.70;5.78;;;25.80;99.90;;;;;;5021334;28;20041;-34
2023/06/26 07:55:43;;;;;;;7.10;5.70;;;25.80;99.90;;;;;;5003211;28;20491;-35
2023/06/26 07:58:09;;;;;;;8.55;5.82;;;25.80;99.90;;;;;;5024402;28;20033;-37
2023/06/26 08:00:35;;;;;;;8.63;5.88;;;26.00;99.90;;;;;;5019398;28;20075;-35
2023/06/26 08:03:00;;;;;;;6.22;4.82;;;26.30;99.90;;;;;;5021116;28;20065;-35
2023/06/26 08:05:26;;;;;;;6.93;5.43;;;26.50;99.90;;;;;;5020465;28;20437;-32
2023/06/26 08:07:52;;;;;;;6.25;5.22;;;26.50;99.90;;;;;;5023111;28;20041;-36
2023/06/26 08:10:17;;;;;;;6.80;5.53;;;26.80;99.90;;;;;;5023735;28;20815;-35
2023/06/26 08:12:44;;;;;;;7.13;5.57;;;26.90;99.90;;;;;;5021604;28;20030;-33
2023/06/26 08:15:11;;;;;;;7.28;5.88;;;26.90;99.90;;;;;;5024382;28;20030;-35
2023/06/26 08:17:38;;;;;;;6.60;5.10;;;27.00;99.90;;;;;;5026441;28;20029;-34
2023/06/26 08:20:04;;;;;;;6.20;5.25;;;27.00;99.90;;;;;;5027424;28;20025;-35
2023/06/26 08:22:29;;;;;;;7.07;5.22;;;27.20;99.90;;;;;;5023435;28;20120;-34
2023/06/26 08:24:55;;;;;;;7.22;5.65;;;27.30;99.90;;;;;;5025545;28;20746;-38
2023/06/26 08:27:21;;;;;;;6.28;5.10;;;27.60;99.90;;;;;;5022792;28;20112;-33
2023/06/26 08:29:46;;;;;;;7.25;5.78;;;27.80;99.90;;;;;;5023932;28;20033;-34
2023/06/26 08:32:12;;;;;;;6.95;4.95;;;27.90;99.90;;;;;;5020758;28;20046;-34
2023/06/26 08:34:37;;;;;;;6.55;4.90;;;28.00;99.90;;;;;;5022880;28;20034;-36
2023/06/26 08:37:03;;;;;;;6.35;5.25;;;28.30;99.90;;;;;;5021854;28;20096;-36
2023/06/26 08:39:29;;;;;;;5.47;4.75;;;28.40;99.90;;;;;;5019963;28;20149;-33
2023/06/26 08:41:54;;;;;;;5.85;4.82;;;28.60;99.90;;;;;;5023152;28;20116;-34
2023/06/26 08:44:24;;;;;;;6.28;5.10;;;28.60;99.90;;;;;;5024007;28;20050;-33
2023/06/26 08:46:51;;;;;;;6.88;4.88;;;28.70;99.90;;;;;;5023688;28;20372;-34
2023/06/26 08:49:33;;;;;;;7.20;5.35;;;28.90;99.90;;;;;;5023473;28;20091;-33
2023/06/26 08:52:11;;;;;;;5.97;5.00;;;28.90;99.90;;;;;;5020931;28;20044;-33
2023/06/26 08:54:45;;;;;;;5.22;4.72;;;28.80;99.90;;;;;;5003223;28;20114;-33
2023/06/26 08:57:11;;;;;;;5.22;4.30;;;28.90;99.90;;;;;;5024543;28;20037;-34
2023/06/26 08:59:38;;;;;;;5.63;4.80;;;29.20;99.90;;;;;;5021193;28;20057;-33
2023/06/26 09:02:04;;;;;;;5.53;4.65;;;29.20;99.90;;;;;;5016996;28;20495;-36
2023/06/26 09:04:30;;;;;;;4.70;4.20;;;29.50;99.90;;;;;;5017695;28;20022;-42
2023/06/26 09:06:56;;;;;;;5.53;4.90;;;29.70;99.90;;;;;;5025310;28;20087;-30
2023/06/26 09:09:21;;;;;;;5.93;4.63;;;30.10;99.90;;;;;;5021930;28;20104;-31
2023/06/26 09:11:47;;;;;;;5.15;4.65;;;29.60;99.90;;;;;;5022162;28;20045;-31
2023/06/26 09:14:13;;;;;;;6.22;4.85;;;29.70;99.90;;;;;;5025168;28;20040;-31
2023/06/26 09:16:41;;;;;;;6.63;4.68;;;30.00;99.90;;;;;;5026173;28;20479;-32
2023/06/26 09:19:11;;;;;;;8.32;4.78;;;30.00;99.90;;;;;;5008445;28;20033;-30
2023/06/26 09:21:41;;;;;;;5.25;4.63;;;30.10;99.90;;;;;;5020171;28;20033;-31
2023/06/26 09:24:08;;;;;;;5.53;4.07;;;30.30;99.90;;;;;;5023244;28;20076;-32
2023/06/26 09:26:39;;;;;;;4.18;3.78;;;29.90;99.90;;;;;;5025932;28;20029;-32
2023/06/26 09:29:06;;;;;;;4.88;4.00;;;29.80;99.90;;;;;;5025421;28;20514;-34
2023/06/26 09:31:33;;;;;;;5.90;4.70;;;29.50;99.90;;;;;;5025935;28;20068;-31
2023/06/26 09:33:59;;;;;;;4.68;4.03;;;29.70;99.90;;;;;;5023476;28;20029;-30
2023/06/26 09:36:29;;;;;;;4.80;4.13;;;30.00;99.90;;;;;;5022809;28;20056;-31
2023/06/26 09:38:54;;;;;;;4.43;4.03;;;30.00;99.90;;;;;;5021592;28;20119;-31
2023/06/26 09:41:20;;;;;;;5.03;4.10;;;29.70;99.90;;;;;;5018596;28;21690;-31
2023/06/26 09:43:50;;;;;;;4.65;3.88;;;29.70;99.90;;;;;;5025262;28;20045;-31
2023/06/26 09:46:26;;;;;;;7.47;4.47;;;29.80;99.90;;;;;;5018397;28;20029;-31
2023/06/26 09:49:10;;;;;;;5.63;4.35;;;29.60;99.90;;;;;;5024379;28;20541;-35
2023/06/26 09:51:38;;;;;;;10.60;4.80;;;29.80;99.90;;;;;;5020963;28;20014;-30
2023/06/26 09:54:04;;;;;;;5.05;4.40;;;29.80;99.90;;;;;;5003417;28;20025;-31
2023/06/26 09:56:31;;;;;;;3.92;3.53;;;30.00;99.90;;;;;;5021680;28;20053;-30
2023/06/26 09:58:58;;;;;;;3.93;3.43;;;30.20;99.90;;;;;;5023916;28;20084;-31
2023/06/26 10:01:25;;;;;;;6.25;3.97;;;30.30;99.90;;;;;;5023696;28;20037;-31
2023/06/26 10:03:51;;;;;;;4.72;4.32;;;29.80;99.90;;;;;;5023432;28;20025;-31
2023/06/26 10:06:22;;;;;;;4.85;4.22;;;29.80;99.90;;;;;;5024183;28;20033;-36
2023/06/26 10:08:49;;;;;;;4.88;4.38;;;30.00;99.90;;;;;;5023530;28;20032;-31
2023/06/26 10:11:18;;;;;;;5.80;4.07;;;30.40;99.90;;;;;;5019464;28;20088;-31
2023/06/26 10:13:47;;;;;;;5.47;4.40;;;30.40;99.90;;;;;;5021901;28;20033;-31
2023/06/26 10:16:15;;;;;;;7.97;4.22;;;30.60;99.90;;;;;;5018305;28;20029;-41
2023/06/26 10:18:43;;;;;;;5.50;4.55;;;30.80;99.90;;;;;;5020120;28;20545;-39
2023/06/26 10:21:10;;;;;;;4.80;4.30;;;30.90;99.90;;;;;;5020323;28;20566;-40
2023/06/26 10:23:38;;;;;;;5.60;3.95;;;30.90;99.90;;;;;;5022812;28;20033;-41
2023/06/26 10:26:06;;;;;;;5.05;4.30;;;31.10;99.90;;;;;;5024933;28;20049;-39
2023/06/26 10:28:34;;;;;;;4.80;4.30;;;31.10;99.90;;;;;;5026260;28;20575;-41
2023/06/26 10:31:01;;;;;;;;;;;30.80;99.90;;;;;;5019852;28;20092;-38
2023/06/26 10:33:27;;;;;;;5.35;4.65;;;30.90;99.90;;;;;;5026222;28;20427;-40
2023/06/26 10:35:53;;;;;;;5.85;4.40;;;31.20;99.90;;;;;;5022439;28;20025;-38
2023/06/26 10:38:19;;;;;;;5.30;4.32;;;31.20;99.90;;;;;;5025066;28;20087;-39
2023/06/26 10:40:51;;;;;;;5.65;4.38;;;31.30;99.90;;;;;;5023540;28;20033;-40
2023/06/26 10:43:18;;;;;;;5.10;4.57;;;31.50;99.90;;;;;;5023704;28;20058;-41
2023/06/26 10:45:55;;;;;;;5.28;4.20;;;31.50;99.90;;;;;;5025609;28;20022;-42
2023/06/26 10:48:22;;;;;;;8.57;4.60;;;31.30;99.90;;;;;;5021871;28;20029;-37
2023/06/26 10:50:49;;;;;;;6.07;5.07;;;30.80;99.90;;;;;;5023219;28;20100;-41
2023/06/26 10:53:19;;;;;;;4.55;4.15;;;30.80;99.90;;;;;;5024031;28;20503;-38
2023/06/26 10:56:04;;;;;;;5.35;4.22;;;31.00;99.90;;;;;;5026689;28;20017;-40
2023/06/26 10:58:34;;;;;;;7.20;4.60;;;30.90;99.90;;;;;;5027894;28;20021;-35
2023/06/26 11:01:14;;;;;;;5.18;4.68;;;30.80;99.90;;;;;;5023995;28;20033;-38
2023/06/26 11:03:41;;;;;;;4.65;4.20;;;30.60;99.90;;;;;;5025868;28;20025;-38
2023/06/26 11:06:20;;;;;;;5.90;4.68;;;30.60;99.90;;;;;;5008880;28;20549;-38
2023/06/26 11:08:47;;;;;;;5.55;5.03;;;30.70;99.90;;;;;;5027282;28;20046;-40
2023/06/26 11:11:13;;;;;;;6.72;4.30;;;30.70;99.90;;;;;;5020484;28;20048;-40
2023/06/26 11:13:40;;;;;;;5.85;5.10;;;30.90;99.90;;;;;;5026216;28;20033;-37
2023/06/26 11:16:06;;;;;;;;;;;30.80;99.90;;;;;;5021600;28;20040;-37
2023/06/26 11:18:32;;;;;;;6.22;4.80;;;31.10;99.90;;;;;;5024924;28;19913;-40
2023/06/26 11:21:13;;;;;;;6.20;4.72;;;31.20;99.90;;;;;;5025062;28;20799;-39
2023/06/26 11:23:39;;;;;;;5.60;4.78;;;31.20;99.90;;;;;;5018214;28;20026;-36
2023/06/26 11:26:14;;;;;;;5.90;4.90;;;31.00;99.90;;;;;;5021087;28;20034;-31
2023/06/26 11:28:46;;;;;;;5.55;4.90;;;31.10;99.90;;;;;;5024703;28;20432;-31
2023/06/26 11:31:27;;;;;;;5.47;4.65;;;31.50;99.90;;;;;;5022758;28;20610;-34
2023/06/26 11:33:54;;;;;;;5.85;4.72;;;31.70;99.90;;;;;;5024847;28;20112;-34
2023/06/26 11:36:24;;;;;;;6.07;4.60;;;31.30;99.90;;;;;;5024905;28;20097;-33
2023/06/26 11:38:57;;;;;;;5.95;5.03;;;30.90;99.90;;;;;;5024191;28;20105;-32
2023/06/26 11:41:27;;;;;;;6.95;4.80;;;31.30;99.90;;;;;;5018939;28;20403;-33
2023/06/26 11:43:53;;;;;;;5.43;4.93;;;31.10;99.90;;;;;;5021224;28;20136;-35
2023/06/26 11:46:21;;;;;;;5.72;4.70;;;30.90;99.90;;;;;;5020296;28;20113;-33
2023/06/26 11:48:47;;;;;;;5.00;4.50;;;30.50;99.90;;;;;;5018361;28;20077;-36
2023/06/26 11:51:16;;;;;;;4.90;4.40;;;30.40;99.90;;;;;;5020299;28;20383;-34
2023/06/26 11:53:44;;;;;;;6.10;4.20;;;30.20;99.90;;;;;;5025164;28;20064;-32
2023/06/26 11:56:11;;;;;;;5.38;4.35;;;30.70;99.90;;;;;;4998342;28;20064;-33
2023/06/26 11:59:04;;;;;;;5.75;4.25;;;31.10;99.90;;;;;;5025986;28;20033;-32
2023/06/26 12:01:36;;;;;;;6.03;4.68;;;31.20;99.90;;;;;;5020136;28;20045;-32
2023/06/26 12:04:10;;;;;;;9.07;4.32;;;31.10;99.90;;;;;;5023841;28;20087;-34
2023/06/26 12:06:38;;;;;;;4.55;4.13;;;31.00;99.90;;;;;;5021977;28;20025;-33
2023/06/26 12:09:07;;;;;;;5.20;4.70;;;31.10;99.90;;;;;;5023486;28;20063;-34
2023/06/26 12:11:34;;;;;;;4.82;4.30;;;31.20;99.90;;;;;;5021556;28;20037;-35
2023/06/26 12:14:00;;;;;;;4.65;4.25;;;31.40;99.90;;;;;;5021898;28;20040;-32
2023/06/26 12:16:28;;;;;;;5.97;4.22;;;31.30;99.90;;;;;;5024164;28;20109;-32
2023/06/26 12:19:02;;;;;;;4.80;4.30;;;31.40;99.90;;;;;;5017827;28;20029;-33
2023/06/26 12:21:48;;;;;;;5.35;4.60;;;31.40;99.90;;;;;;5019462;28;20589;-32
2023/06/26 12:24:19;;;;;;;6.17;4.83;;;31.30;99.90;;;;;;5023050;28;20031;-33
2023/06/26 12:26:46;;;;;;;4.80;4.18;;;31.10;99.90;;;;;;5023418;28;20084;-33
2023/06/26 12:29:17;;;;;;;6.88;4.72;;;30.70;99.90;;;;;;5018098;28;20033;-33
2023/06/26 12:31:51;;;;;;;4.60;4.20;;;31.10;99.90;;;;;;5020778;28;20037;-34
2023/06/26 12:34:25;;;;;;;6.00;4.22;;;31.50;99.90;;;;;;5024532;28;20511;-33
2023/06/26 12:36:51;;;;;;;6.05;4.60;;;31.40;99.90;;;;;;5023535;28;20414;-34
2023/06/26 12:39:18;;;;;;;4.65;4.20;;;31.80;99.90;;;;;;5022339;28;20483;-34
2023/06/26 12:41:54;;;;;;;;;;;31.60;99.90;;;;;;5018088;28;20033;-37
2023/06/26 12:44:26;;;;;;;5.53;4.22;;;31.70;99.90;;;;;;5021960;28;20361;-35
2023/06/26 12:46:58;;;;;;;5.78;4.57;;;31.70;99.90;;;;;;5019796;28;20527;-34